sensor_id;sensor_type;location;lat;lon;timestamp;P1;durP1;ratioP1;P2;durP2;ratioP2
4821;SDS011;2425;47.794;13.068;2023-09-19T00:00:55;1.03;;;0.50;;
4821;SDS011;2425;47.794;13.068;2023-09-19T00:03:23;0.60;;;0.60;;
4821;SDS011;2425;47.794;13.068;2023-09-19T00:05:51;0.80;;;0.80;;
4821;SDS011;2425;47.794;13.068;2023-09-19T00:08:18;1.57;;;0.50;;
4821;SDS011;2425;47.794;13.068;2023-09-19T00:10:48;0.83;;;0.60;;
4821;SDS011;2425;47.794;13.068;2023-09-19T00:13:15;0.60;;;0.60;;
4821;SDS011;2425;47.794;13.068;2023-09-19T00:15:42;0.97;;;0.97;;
4821;SDS011;2425;47.794;13.068;2023-09-19T00:18:13;0.60;;;0.60;;
4821;SDS011;2425;47.794;13.068;2023-09-19T00:20:42;0.70;;;0.63;;
4821;SDS011;2425;47.794;13.068;2023-09-19T00:23:12;2.73;;;0.87;;
4821;SDS011;2425;47.794;13.068;2023-09-19T00:25:39;1.47;;;0.80;;
4821;SDS011;2425;47.794;13.068;2023-09-19T00:28:07;0.60;;;0.60;;
4821;SDS011;2425;47.794;13.068;2023-09-19T00:30:34;2.40;;;0.57;;
4821;SDS011;2425;47.794;13.068;2023-09-19T00:33:03;0.60;;;0.60;;
4821;SDS011;2425;47.794;13.068;2023-09-19T00:35:31;0.53;;;0.53;;
4821;SDS011;2425;47.794;13.068;2023-09-19T00:38:00;0.70;;;0.70;;
4821;SDS011;2425;47.794;13.068;2023-09-19T00:40:27;0.60;;;0.60;;
4821;SDS011;2425;47.794;13.068;2023-09-19T00:42:57;0.60;;;0.60;;
4821;SDS011;2425;47.794;13.068;2023-09-19T00:45:25;0.80;;;0.73;;
4821;SDS011;2425;47.794;13.068;2023-09-19T00:47:51;0.80;;;0.80;;
4821;SDS011;2425;47.794;13.068;2023-09-19T00:50:19;0.60;;;0.60;;
4821;SDS011;2425;47.794;13.068;2023-09-19T00:52:46;0.70;;;0.70;;
4821;SDS011;2425;47.794;13.068;2023-09-19T00:55:16;0.97;;;0.70;;
4821;SDS011;2425;47.794;13.068;2023-09-19T00:57:44;1.23;;;0.50;;
4821;SDS011;2425;47.794;13.068;2023-09-19T01:00:13;0.80;;;0.80;;
4821;SDS011;2425;47.794;13.068;2023-09-19T01:02:41;0.60;;;0.43;;
4821;SDS011;2425;47.794;13.068;2023-09-19T01:05:08;0.63;;;0.47;;
4821;SDS011;2425;47.794;13.068;2023-09-19T01:07:35;0.70;;;0.70;;
4821;SDS011;2425;47.794;13.068;2023-09-19T01:10:03;0.83;;;0.77;;
4821;SDS011;2425;47.794;13.068;2023-09-19T01:12:36;3.13;;;0.87;;
4821;SDS011;2425;47.794;13.068;2023-09-19T01:15:12;0.90;;;0.80;;
4821;SDS011;2425;47.794;13.068;2023-09-19T01:17:45;1.07;;;0.70;;
4821;SDS011;2425;47.794;13.068;2023-09-19T01:23:02;0.70;;;0.70;;
4821;SDS011;2425;47.794;13.068;2023-09-19T01:25:39;1.17;;;0.67;;
4821;SDS011;2425;47.794;13.068;2023-09-19T01:28:24;1.87;;;0.73;;
4821;SDS011;2425;47.794;13.068;2023-09-19T01:30:59;0.70;;;0.70;;
4821;SDS011;2425;47.794;13.068;2023-09-19T01:33:53;0.50;;;0.50;;
4821;SDS011;2425;47.794;13.068;2023-09-19T01:36:29;2.63;;;0.70;;
4821;SDS011;2425;47.794;13.068;2023-09-19T01:38:58;0.53;;;0.53;;
4821;SDS011;2425;47.794;13.068;2023-09-19T01:41:33;0.70;;;0.70;;
4821;SDS011;2425;47.794;13.068;2023-09-19T01:44:17;0.63;;;0.63;;
4821;SDS011;2425;47.794;13.068;2023-09-19T01:46:50;1.27;;;0.80;;
4821;SDS011;2425;47.794;13.068;2023-09-19T01:49:22;0.70;;;0.60;;
4821;SDS011;2425;47.794;13.068;2023-09-19T01:51:56;0.70;;;0.70;;
4821;SDS011;2425;47.794;13.068;2023-09-19T01:54:32;0.67;;;0.67;;
4821;SDS011;2425;47.794;13.068;2023-09-19T01:57:03;0.50;;;0.50;;
4821;SDS011;2425;47.794;13.068;2023-09-19T01:59:35;2.53;;;0.80;;
4821;SDS011;2425;47.794;13.068;2023-09-19T02:02:07;0.77;;;0.60;;
4821;SDS011;2425;47.794;13.068;2023-09-19T02:04:34;0.77;;;0.77;;
4821;SDS011;2425;47.794;13.068;2023-09-19T02:07:02;0.53;;;0.53;;
4821;SDS011;2425;47.794;13.068;2023-09-19T02:09:30;0.70;;;0.67;;
4821;SDS011;2425;47.794;13.068;2023-09-19T02:11:58;2.10;;;0.97;;
4821;SDS011;2425;47.794;13.068;2023-09-19T02:14:25;0.63;;;0.63;;
4821;SDS011;2425;47.794;13.068;2023-09-19T02:16:52;0.70;;;0.70;;
4821;SDS011;2425;47.794;13.068;2023-09-19T02:19:21;0.50;;;0.40;;
4821;SDS011;2425;47.794;13.068;2023-09-19T02:21:47;0.50;;;0.50;;
4821;SDS011;2425;47.794;13.068;2023-09-19T02:24:14;0.73;;;0.73;;
4821;SDS011;2425;47.794;13.068;2023-09-19T02:26:41;0.70;;;0.70;;
4821;SDS011;2425;47.794;13.068;2023-09-19T02:29:09;0.70;;;0.70;;
4821;SDS011;2425;47.794;13.068;2023-09-19T02:31:38;1.20;;;0.70;;
4821;SDS011;2425;47.794;13.068;2023-09-19T02:34:05;0.63;;;0.63;;
4821;SDS011;2425;47.794;13.068;2023-09-19T02:36:36;1.03;;;0.70;;
4821;SDS011;2425;47.794;13.068;2023-09-19T02:39:03;1.03;;;0.77;;
4821;SDS011;2425;47.794;13.068;2023-09-19T02:41:31;0.60;;;0.60;;
4821;SDS011;2425;47.794;13.068;2023-09-19T02:43:58;1.90;;;0.90;;
4821;SDS011;2425;47.794;13.068;2023-09-19T02:46:26;0.60;;;0.60;;
4821;SDS011;2425;47.794;13.068;2023-09-19T02:48:53;0.60;;;0.60;;
4821;SDS011;2425;47.794;13.068;2023-09-19T02:51:21;1.13;;;0.80;;
4821;SDS011;2425;47.794;13.068;2023-09-19T02:53:49;0.70;;;0.70;;
4821;SDS011;2425;47.794;13.068;2023-09-19T02:56:17;0.73;;;0.73;;
4821;SDS011;2425;47.794;13.068;2023-09-19T02:58:44;1.00;;;0.67;;
4821;SDS011;2425;47.794;13.068;2023-09-19T03:01:11;1.70;;;0.90;;
4821;SDS011;2425;47.794;13.068;2023-09-19T03:03:38;0.90;;;0.70;;
4821;SDS011;2425;47.794;13.068;2023-09-19T03:06:06;0.80;;;0.57;;
4821;SDS011;2425;47.794;13.068;2023-09-19T03:08:34;1.90;;;0.63;;
4821;SDS011;2425;47.794;13.068;2023-09-19T03:11:04;0.60;;;0.60;;
4821;SDS011;2425;47.794;13.068;2023-09-19T03:13:33;4.43;;;0.80;;
4821;SDS011;2425;47.794;13.068;2023-09-19T03:16:01;0.83;;;0.70;;
4821;SDS011;2425;47.794;13.068;2023-09-19T03:18:30;0.83;;;0.60;;
4821;SDS011;2425;47.794;13.068;2023-09-19T03:20:58;0.77;;;0.70;;
4821;SDS011;2425;47.794;13.068;2023-09-19T03:23:25;0.60;;;0.60;;
4821;SDS011;2425;47.794;13.068;2023-09-19T03:25:52;0.70;;;0.70;;
4821;SDS011;2425;47.794;13.068;2023-09-19T03:28:21;1.20;;;0.57;;
4821;SDS011;2425;47.794;13.068;2023-09-19T03:30:56;0.80;;;0.80;;
4821;SDS011;2425;47.794;13.068;2023-09-19T03:33:25;0.90;;;0.90;;
4821;SDS011;2425;47.794;13.068;2023-09-19T03:35:52;0.70;;;0.70;;
4821;SDS011;2425;47.794;13.068;2023-09-19T03:38:19;0.90;;;0.90;;
4821;SDS011;2425;47.794;13.068;2023-09-19T03:40:46;0.70;;;0.70;;
4821;SDS011;2425;47.794;13.068;2023-09-19T03:43:13;0.70;;;0.70;;
4821;SDS011;2425;47.794;13.068;2023-09-19T03:45:41;0.90;;;0.83;;
4821;SDS011;2425;47.794;13.068;2023-09-19T03:48:08;0.67;;;0.67;;
4821;SDS011;2425;47.794;13.068;2023-09-19T03:50:35;0.67;;;0.67;;
4821;SDS011;2425;47.794;13.068;2023-09-19T03:53:02;0.60;;;0.60;;
4821;SDS011;2425;47.794;13.068;2023-09-19T03:55:29;0.80;;;0.80;;
4821;SDS011;2425;47.794;13.068;2023-09-19T03:57:56;0.50;;;0.50;;
4821;SDS011;2425;47.794;13.068;2023-09-19T04:00:23;2.10;;;0.73;;
4821;SDS011;2425;47.794;13.068;2023-09-19T04:02:52;1.23;;;0.70;;
4821;SDS011;2425;47.794;13.068;2023-09-19T04:05:21;0.97;;;0.97;;
4821;SDS011;2425;47.794;13.068;2023-09-19T04:07:48;0.47;;;0.47;;
4821;SDS011;2425;47.794;13.068;2023-09-19T04:10:15;3.77;;;1.00;;
4821;SDS011;2425;47.794;13.068;2023-09-19T04:12:41;0.87;;;0.87;;
4821;SDS011;2425;47.794;13.068;2023-09-19T04:15:16;0.70;;;0.70;;
4821;SDS011;2425;47.794;13.068;2023-09-19T04:17:43;0.73;;;0.60;;
4821;SDS011;2425;47.794;13.068;2023-09-19T04:20:11;0.80;;;0.80;;
4821;SDS011;2425;47.794;13.068;2023-09-19T04:22:38;0.80;;;0.80;;
4821;SDS011;2425;47.794;13.068;2023-09-19T04:25:05;0.77;;;0.77;;
4821;SDS011;2425;47.794;13.068;2023-09-19T04:27:33;1.00;;;1.00;;
4821;SDS011;2425;47.794;13.068;2023-09-19T04:30:00;1.00;;;0.90;;
4821;SDS011;2425;47.794;13.068;2023-09-19T04:32:34;0.60;;;0.60;;
4821;SDS011;2425;47.794;13.068;2023-09-19T04:35:03;0.77;;;0.77;;
4821;SDS011;2425;47.794;13.068;2023-09-19T04:37:35;0.73;;;0.73;;
4821;SDS011;2425;47.794;13.068;2023-09-19T04:40:03;0.80;;;0.80;;
4821;SDS011;2425;47.794;13.068;2023-09-19T04:42:32;0.60;;;0.60;;
4821;SDS011;2425;47.794;13.068;2023-09-19T04:44:58;1.03;;;0.80;;
4821;SDS011;2425;47.794;13.068;2023-09-19T04:47:26;0.53;;;0.53;;
4821;SDS011;2425;47.794;13.068;2023-09-19T04:49:52;0.73;;;0.73;;
4821;SDS011;2425;47.794;13.068;2023-09-19T04:52:19;0.80;;;0.80;;
4821;SDS011;2425;47.794;13.068;2023-09-19T04:54:47;0.70;;;0.70;;
4821;SDS011;2425;47.794;13.068;2023-09-19T04:57:14;0.90;;;0.90;;
4821;SDS011;2425;47.794;13.068;2023-09-19T04:59:41;0.70;;;0.70;;
4821;SDS011;2425;47.794;13.068;2023-09-19T05:02:08;0.77;;;0.77;;
4821;SDS011;2425;47.794;13.068;2023-09-19T05:04:35;0.70;;;0.70;;
4821;SDS011;2425;47.794;13.068;2023-09-19T05:07:02;0.63;;;0.63;;
4821;SDS011;2425;47.794;13.068;2023-09-19T05:09:29;1.27;;;1.17;;
4821;SDS011;2425;47.794;13.068;2023-09-19T05:11:59;0.77;;;0.77;;
4821;SDS011;2425;47.794;13.068;2023-09-19T05:14:26;1.03;;;0.67;;
4821;SDS011;2425;47.794;13.068;2023-09-19T05:16:53;0.63;;;0.63;;
4821;SDS011;2425;47.794;13.068;2023-09-19T05:19:23;0.77;;;0.77;;
4821;SDS011;2425;47.794;13.068;2023-09-19T05:21:54;0.70;;;0.70;;
4821;SDS011;2425;47.794;13.068;2023-09-19T05:24:21;1.20;;;1.10;;
4821;SDS011;2425;47.794;13.068;2023-09-19T05:26:51;0.80;;;0.80;;
4821;SDS011;2425;47.794;13.068;2023-09-19T05:29:19;1.20;;;0.90;;
4821;SDS011;2425;47.794;13.068;2023-09-19T05:31:46;0.70;;;0.70;;
4821;SDS011;2425;47.794;13.068;2023-09-19T05:34:13;1.20;;;0.80;;
4821;SDS011;2425;47.794;13.068;2023-09-19T05:36:39;2.23;;;0.50;;
4821;SDS011;2425;47.794;13.068;2023-09-19T05:39:06;0.70;;;0.70;;
4821;SDS011;2425;47.794;13.068;2023-09-19T05:41:34;0.80;;;0.80;;
4821;SDS011;2425;47.794;13.068;2023-09-19T05:44:01;0.93;;;0.80;;
4821;SDS011;2425;47.794;13.068;2023-09-19T05:46:30;0.60;;;0.60;;
4821;SDS011;2425;47.794;13.068;2023-09-19T05:48:56;0.80;;;0.80;;
4821;SDS011;2425;47.794;13.068;2023-09-19T05:51:23;0.60;;;0.60;;
4821;SDS011;2425;47.794;13.068;2023-09-19T05:53:53;0.50;;;0.50;;
4821;SDS011;2425;47.794;13.068;2023-09-19T05:56:20;0.57;;;0.57;;
4821;SDS011;2425;47.794;13.068;2023-09-19T05:58:47;0.60;;;0.60;;
4821;SDS011;2425;47.794;13.068;2023-09-19T06:01:14;0.70;;;0.70;;
4821;SDS011;2425;47.794;13.068;2023-09-19T06:03:43;0.90;;;0.90;;
4821;SDS011;2425;47.794;13.068;2023-09-19T06:06:09;0.60;;;0.60;;
4821;SDS011;2425;47.794;13.068;2023-09-19T06:08:36;0.60;;;0.60;;
4821;SDS011;2425;47.794;13.068;2023-09-19T06:11:03;1.27;;;0.70;;
4821;SDS011;2425;47.794;13.068;2023-09-19T06:13:34;0.73;;;0.73;;
4821;SDS011;2425;47.794;13.068;2023-09-19T06:16:01;0.80;;;0.80;;
4821;SDS011;2425;47.794;13.068;2023-09-19T06:18:30;1.73;;;0.80;;
4821;SDS011;2425;47.794;13.068;2023-09-19T06:21:00;0.90;;;0.90;;
4821;SDS011;2425;47.794;13.068;2023-09-19T06:23:30;0.70;;;0.70;;
4821;SDS011;2425;47.794;13.068;2023-09-19T06:25:57;0.60;;;0.60;;
4821;SDS011;2425;47.794;13.068;2023-09-19T06:28:24;1.53;;;0.60;;
4821;SDS011;2425;47.794;13.068;2023-09-19T06:30:53;0.90;;;0.90;;
4821;SDS011;2425;47.794;13.068;2023-09-19T06:33:20;0.70;;;0.70;;
4821;SDS011;2425;47.794;13.068;2023-09-19T06:35:47;1.23;;;0.80;;
4821;SDS011;2425;47.794;13.068;2023-09-19T06:38:15;1.13;;;0.80;;
4821;SDS011;2425;47.794;13.068;2023-09-19T06:40:44;0.60;;;0.60;;
4821;SDS011;2425;47.794;13.068;2023-09-19T06:43:11;0.87;;;0.80;;
4821;SDS011;2425;47.794;13.068;2023-09-19T06:45:37;0.60;;;0.60;;
4821;SDS011;2425;47.794;13.068;2023-09-19T06:48:04;0.87;;;0.80;;
4821;SDS011;2425;47.794;13.068;2023-09-19T06:50:32;0.97;;;0.73;;
4821;SDS011;2425;47.794;13.068;2023-09-19T06:52:59;1.03;;;1.03;;
4821;SDS011;2425;47.794;13.068;2023-09-19T06:55:29;2.50;;;0.70;;
4821;SDS011;2425;47.794;13.068;2023-09-19T06:57:57;0.50;;;0.50;;
4821;SDS011;2425;47.794;13.068;2023-09-19T07:00:24;2.03;;;0.73;;
4821;SDS011;2425;47.794;13.068;2023-09-19T07:02:56;1.00;;;0.80;;
4821;SDS011;2425;47.794;13.068;2023-09-19T07:05:25;0.80;;;0.80;;
4821;SDS011;2425;47.794;13.068;2023-09-19T07:07:52;0.90;;;0.90;;
4821;SDS011;2425;47.794;13.068;2023-09-19T07:10:19;2.00;;;1.10;;
4821;SDS011;2425;47.794;13.068;2023-09-19T07:12:54;0.97;;;0.83;;
4821;SDS011;2425;47.794;13.068;2023-09-19T07:15:21;1.07;;;1.03;;
4821;SDS011;2425;47.794;13.068;2023-09-19T07:17:50;1.37;;;1.23;;
4821;SDS011;2425;47.794;13.068;2023-09-19T07:20:18;6.20;;;2.20;;
4821;SDS011;2425;47.794;13.068;2023-09-19T07:22:44;13.20;;;3.33;;
4821;SDS011;2425;47.794;13.068;2023-09-19T07:25:11;7.37;;;2.50;;
4821;SDS011;2425;47.794;13.068;2023-09-19T07:27:39;15.50;;;4.73;;
4821;SDS011;2425;47.794;13.068;2023-09-19T07:30:08;9.97;;;3.77;;
4821;SDS011;2425;47.794;13.068;2023-09-19T07:32:35;16.27;;;3.53;;
4821;SDS011;2425;47.794;13.068;2023-09-19T07:35:03;10.80;;;3.63;;
4821;SDS011;2425;47.794;13.068;2023-09-19T07:37:31;19.77;;;4.60;;
4821;SDS011;2425;47.794;13.068;2023-09-19T07:39:58;13.17;;;3.93;;
4821;SDS011;2425;47.794;13.068;2023-09-19T07:42:26;17.97;;;4.87;;
4821;SDS011;2425;47.794;13.068;2023-09-19T07:44:52;15.20;;;4.70;;
4821;SDS011;2425;47.794;13.068;2023-09-19T07:47:20;16.60;;;4.97;;
4821;SDS011;2425;47.794;13.068;2023-09-19T07:49:47;17.97;;;5.10;;
4821;SDS011;2425;47.794;13.068;2023-09-19T07:52:14;26.00;;;6.17;;
4821;SDS011;2425;47.794;13.068;2023-09-19T07:54:41;23.90;;;6.43;;
4821;SDS011;2425;47.794;13.068;2023-09-19T07:57:09;24.90;;;5.73;;
4821;SDS011;2425;47.794;13.068;2023-09-19T07:59:36;20.00;;;5.03;;
4821;SDS011;2425;47.794;13.068;2023-09-19T08:02:03;18.60;;;5.63;;
4821;SDS011;2425;47.794;13.068;2023-09-19T08:04:32;23.50;;;5.43;;
4821;SDS011;2425;47.794;13.068;2023-09-19T08:06:59;17.57;;;4.77;;
4821;SDS011;2425;47.794;13.068;2023-09-19T08:09:28;19.40;;;5.30;;
4821;SDS011;2425;47.794;13.068;2023-09-19T08:11:58;27.23;;;6.60;;
4821;SDS011;2425;47.794;13.068;2023-09-19T08:14:27;23.10;;;5.50;;
4821;SDS011;2425;47.794;13.068;2023-09-19T08:16:56;24.73;;;6.50;;
4821;SDS011;2425;47.794;13.068;2023-09-19T08:19:23;25.43;;;6.03;;
4821;SDS011;2425;47.794;13.068;2023-09-19T08:21:54;25.10;;;5.87;;
4821;SDS011;2425;47.794;13.068;2023-09-19T08:24:23;20.93;;;5.80;;
4821;SDS011;2425;47.794;13.068;2023-09-19T08:26:53;29.67;;;6.20;;
4821;SDS011;2425;47.794;13.068;2023-09-19T08:29:20;30.17;;;5.17;;
4821;SDS011;2425;47.794;13.068;2023-09-19T08:31:52;19.30;;;4.50;;
4821;SDS011;2425;47.794;13.068;2023-09-19T08:34:19;18.00;;;3.93;;
4821;SDS011;2425;47.794;13.068;2023-09-19T08:36:46;15.03;;;5.10;;
4821;SDS011;2425;47.794;13.068;2023-09-19T08:39:14;19.40;;;5.47;;
4821;SDS011;2425;47.794;13.068;2023-09-19T08:41:42;19.63;;;4.40;;
4821;SDS011;2425;47.794;13.068;2023-09-19T08:44:08;16.83;;;4.83;;
4821;SDS011;2425;47.794;13.068;2023-09-19T08:46:35;12.27;;;4.13;;
4821;SDS011;2425;47.794;13.068;2023-09-19T08:49:03;16.83;;;4.53;;
4821;SDS011;2425;47.794;13.068;2023-09-19T08:51:33;15.03;;;4.03;;
4821;SDS011;2425;47.794;13.068;2023-09-19T08:54:06;17.43;;;4.33;;
4821;SDS011;2425;47.794;13.068;2023-09-19T08:56:36;23.37;;;4.83;;
4821;SDS011;2425;47.794;13.068;2023-09-19T08:59:05;13.57;;;3.77;;
4821;SDS011;2425;47.794;13.068;2023-09-19T09:01:34;15.43;;;4.47;;
4821;SDS011;2425;47.794;13.068;2023-09-19T09:04:01;16.33;;;3.97;;
4821;SDS011;2425;47.794;13.068;2023-09-19T09:06:30;12.10;;;4.00;;
4821;SDS011;2425;47.794;13.068;2023-09-19T09:08:58;15.93;;;3.80;;
4821;SDS011;2425;47.794;13.068;2023-09-19T09:11:25;16.83;;;4.03;;
4821;SDS011;2425;47.794;13.068;2023-09-19T09:13:54;15.70;;;4.17;;
4821;SDS011;2425;47.794;13.068;2023-09-19T09:16:22;16.97;;;3.73;;
4821;SDS011;2425;47.794;13.068;2023-09-19T09:18:51;9.43;;;3.10;;
4821;SDS011;2425;47.794;13.068;2023-09-19T09:21:19;10.90;;;3.50;;
4821;SDS011;2425;47.794;13.068;2023-09-19T09:23:46;10.63;;;3.73;;
4821;SDS011;2425;47.794;13.068;2023-09-19T09:26:13;12.70;;;3.47;;
4821;SDS011;2425;47.794;13.068;2023-09-19T09:28:44;6.83;;;3.40;;
4821;SDS011;2425;47.794;13.068;2023-09-19T09:31:23;13.83;;;3.33;;
4821;SDS011;2425;47.794;13.068;2023-09-19T09:33:53;11.73;;;3.63;;
4821;SDS011;2425;47.794;13.068;2023-09-19T09:36:33;7.87;;;2.80;;
4821;SDS011;2425;47.794;13.068;2023-09-19T09:39:01;7.80;;;3.40;;
4821;SDS011;2425;47.794;13.068;2023-09-19T09:41:41;11.50;;;3.43;;
4821;SDS011;2425;47.794;13.068;2023-09-19T09:44:11;10.10;;;2.90;;
4821;SDS011;2425;47.794;13.068;2023-09-19T09:46:43;8.53;;;3.20;;
4821;SDS011;2425;47.794;13.068;2023-09-19T09:49:47;6.17;;;2.50;;
4821;SDS011;2425;47.794;13.068;2023-09-19T09:52:19;7.03;;;2.40;;
4821;SDS011;2425;47.794;13.068;2023-09-19T09:54:58;7.87;;;2.90;;
4821;SDS011;2425;47.794;13.068;2023-09-19T09:57:25;9.50;;;2.80;;
4821;SDS011;2425;47.794;13.068;2023-09-19T09:59:52;5.63;;;2.60;;
4821;SDS011;2425;47.794;13.068;2023-09-19T10:02:26;5.77;;;2.47;;
4821;SDS011;2425;47.794;13.068;2023-09-19T10:04:58;3.17;;;1.90;;
4821;SDS011;2425;47.794;13.068;2023-09-19T10:07:34;9.60;;;2.90;;
4821;SDS011;2425;47.794;13.068;2023-09-19T10:10:03;6.03;;;2.10;;
4821;SDS011;2425;47.794;13.068;2023-09-19T10:12:42;8.27;;;2.60;;
4821;SDS011;2425;47.794;13.068;2023-09-19T10:15:10;3.67;;;2.60;;
4821;SDS011;2425;47.794;13.068;2023-09-19T10:17:42;3.53;;;2.43;;
4821;SDS011;2425;47.794;13.068;2023-09-19T10:20:11;4.13;;;2.37;;
4821;SDS011;2425;47.794;13.068;2023-09-19T10:22:57;5.73;;;2.33;;
4821;SDS011;2425;47.794;13.068;2023-09-19T10:25:26;3.07;;;2.20;;
4821;SDS011;2425;47.794;13.068;2023-09-19T10:27:55;4.53;;;2.40;;
4821;SDS011;2425;47.794;13.068;2023-09-19T10:30:25;3.00;;;1.90;;
4821;SDS011;2425;47.794;13.068;2023-09-19T10:32:56;3.30;;;2.07;;
4821;SDS011;2425;47.794;13.068;2023-09-19T10:35:26;2.90;;;2.00;;
4821;SDS011;2425;47.794;13.068;2023-09-19T10:37:54;2.50;;;2.00;;
4821;SDS011;2425;47.794;13.068;2023-09-19T10:40:21;2.17;;;2.07;;
4821;SDS011;2425;47.794;13.068;2023-09-19T10:42:51;3.33;;;1.87;;
4821;SDS011;2425;47.794;13.068;2023-09-19T10:45:20;4.13;;;2.00;;
4821;SDS011;2425;47.794;13.068;2023-09-19T10:47:47;2.17;;;1.97;;
4821;SDS011;2425;47.794;13.068;2023-09-19T10:50:20;2.20;;;1.70;;
4821;SDS011;2425;47.794;13.068;2023-09-19T10:52:48;2.03;;;1.93;;
4821;SDS011;2425;47.794;13.068;2023-09-19T10:55:15;3.13;;;1.97;;
4821;SDS011;2425;47.794;13.068;2023-09-19T10:57:44;1.90;;;1.80;;
4821;SDS011;2425;47.794;13.068;2023-09-19T11:00:11;2.10;;;2.00;;
4821;SDS011;2425;47.794;13.068;2023-09-19T11:05:45;2.27;;;1.67;;
4821;SDS011;2425;47.794;13.068;2023-09-19T11:08:30;3.70;;;1.80;;
4821;SDS011;2425;47.794;13.068;2023-09-19T11:10:58;1.57;;;1.43;;
4821;SDS011;2425;47.794;13.068;2023-09-19T11:13:28;3.37;;;1.80;;
4821;SDS011;2425;47.794;13.068;2023-09-19T11:16:03;3.10;;;1.67;;
4821;SDS011;2425;47.794;13.068;2023-09-19T11:24:27;2.17;;;1.97;;
4821;SDS011;2425;47.794;13.068;2023-09-19T11:27:08;3.67;;;2.07;;
4821;SDS011;2425;47.794;13.068;2023-09-19T11:29:40;5.23;;;2.57;;
4821;SDS011;2425;47.794;13.068;2023-09-19T11:32:07;2.60;;;2.00;;
4821;SDS011;2425;47.794;13.068;2023-09-19T11:34:38;2.50;;;1.43;;
4821;SDS011;2425;47.794;13.068;2023-09-19T11:40:45;2.40;;;1.80;;
4821;SDS011;2425;47.794;13.068;2023-09-19T11:43:32;2.43;;;1.60;;
4821;SDS011;2425;47.794;13.068;2023-09-19T11:46:06;6.57;;;1.80;;
4821;SDS011;2425;47.794;13.068;2023-09-19T11:48:33;1.73;;;1.60;;
4821;SDS011;2425;47.794;13.068;2023-09-19T11:51:05;3.30;;;1.77;;
4821;SDS011;2425;47.794;13.068;2023-09-19T11:53:48;1.57;;;1.47;;
4821;SDS011;2425;47.794;13.068;2023-09-19T11:56:18;4.20;;;1.50;;
4821;SDS011;2425;47.794;13.068;2023-09-19T11:58:46;1.73;;;1.53;;
4821;SDS011;2425;47.794;13.068;2023-09-19T12:01:14;1.97;;;1.67;;
4821;SDS011;2425;47.794;13.068;2023-09-19T12:03:46;3.80;;;1.70;;
4821;SDS011;2425;47.794;13.068;2023-09-19T12:06:15;1.40;;;1.40;;
4821;SDS011;2425;47.794;13.068;2023-09-19T12:08:42;1.93;;;1.70;;
4821;SDS011;2425;47.794;13.068;2023-09-19T12:11:12;1.40;;;1.30;;
4821;SDS011;2425;47.794;13.068;2023-09-19T12:13:42;1.60;;;1.50;;
4821;SDS011;2425;47.794;13.068;2023-09-19T12:16:13;3.07;;;1.47;;
4821;SDS011;2425;47.794;13.068;2023-09-19T12:18:41;1.80;;;1.70;;
4821;SDS011;2425;47.794;13.068;2023-09-19T12:21:21;1.47;;;1.37;;
4821;SDS011;2425;47.794;13.068;2023-09-19T12:23:56;2.67;;;1.57;;
4821;SDS011;2425;47.794;13.068;2023-09-19T12:26:26;1.53;;;1.43;;
4821;SDS011;2425;47.794;13.068;2023-09-19T12:28:55;1.40;;;1.40;;
4821;SDS011;2425;47.794;13.068;2023-09-19T12:31:22;1.20;;;1.10;;
4821;SDS011;2425;47.794;13.068;2023-09-19T12:33:53;1.57;;;1.47;;
4821;SDS011;2425;47.794;13.068;2023-09-19T12:36:20;1.80;;;1.50;;
4821;SDS011;2425;47.794;13.068;2023-09-19T12:38:50;1.13;;;1.13;;
4821;SDS011;2425;47.794;13.068;2023-09-19T12:41:18;3.70;;;1.53;;
4821;SDS011;2425;47.794;13.068;2023-09-19T12:43:46;1.73;;;1.30;;
4821;SDS011;2425;47.794;13.068;2023-09-19T12:46:14;1.13;;;1.10;;
4821;SDS011;2425;47.794;13.068;2023-09-19T12:48:44;1.60;;;1.30;;
4821;SDS011;2425;47.794;13.068;2023-09-19T12:51:13;1.53;;;1.30;;
4821;SDS011;2425;47.794;13.068;2023-09-19T12:53:41;3.07;;;1.17;;
4821;SDS011;2425;47.794;13.068;2023-09-19T12:56:12;1.50;;;1.40;;
4821;SDS011;2425;47.794;13.068;2023-09-19T12:58:50;3.03;;;1.53;;
4821;SDS011;2425;47.794;13.068;2023-09-19T13:01:20;3.07;;;1.27;;
4821;SDS011;2425;47.794;13.068;2023-09-19T13:06:40;2.87;;;1.40;;
4821;SDS011;2425;47.794;13.068;2023-09-19T13:09:09;2.17;;;1.30;;
4821;SDS011;2425;47.794;13.068;2023-09-19T13:11:36;5.73;;;1.30;;
4821;SDS011;2425;47.794;13.068;2023-09-19T13:16:57;2.30;;;1.40;;
4821;SDS011;2425;47.794;13.068;2023-09-19T13:19:35;1.20;;;1.20;;
4821;SDS011;2425;47.794;13.068;2023-09-19T13:25:03;1.30;;;1.30;;
4821;SDS011;2425;47.794;13.068;2023-09-19T13:27:31;1.50;;;1.40;;
4821;SDS011;2425;47.794;13.068;2023-09-19T13:29:58;1.00;;;1.00;;
4821;SDS011;2425;47.794;13.068;2023-09-19T13:32:26;1.50;;;1.40;;
4821;SDS011;2425;47.794;13.068;2023-09-19T13:34:53;1.50;;;1.40;;
4821;SDS011;2425;47.794;13.068;2023-09-19T13:37:20;2.20;;;0.90;;
4821;SDS011;2425;47.794;13.068;2023-09-19T13:39:47;1.30;;;1.20;;
4821;SDS011;2425;47.794;13.068;2023-09-19T13:42:14;1.23;;;0.90;;
4821;SDS011;2425;47.794;13.068;2023-09-19T13:44:41;0.90;;;0.90;;
4821;SDS011;2425;47.794;13.068;2023-09-19T13:47:08;1.20;;;1.10;;
4821;SDS011;2425;47.794;13.068;2023-09-19T13:49:39;1.17;;;1.17;;
4821;SDS011;2425;47.794;13.068;2023-09-19T13:52:07;0.97;;;0.97;;
4821;SDS011;2425;47.794;13.068;2023-09-19T13:54:35;2.43;;;1.13;;
4821;SDS011;2425;47.794;13.068;2023-09-19T13:57:01;1.60;;;1.20;;
4821;SDS011;2425;47.794;13.068;2023-09-19T13:59:28;1.20;;;1.20;;
4821;SDS011;2425;47.794;13.068;2023-09-19T14:01:56;1.00;;;1.00;;
4821;SDS011;2425;47.794;13.068;2023-09-19T14:04:22;3.00;;;1.30;;
4821;SDS011;2425;47.794;13.068;2023-09-19T14:06:51;2.00;;;1.07;;
4821;SDS011;2425;47.794;13.068;2023-09-19T14:09:17;1.20;;;1.10;;
4821;SDS011;2425;47.794;13.068;2023-09-19T14:11:44;1.10;;;1.00;;
4821;SDS011;2425;47.794;13.068;2023-09-19T14:14:12;1.43;;;1.03;;
4821;SDS011;2425;47.794;13.068;2023-09-19T14:16:39;1.30;;;1.30;;
4821;SDS011;2425;47.794;13.068;2023-09-19T14:19:07;4.40;;;1.30;;
4821;SDS011;2425;47.794;13.068;2023-09-19T14:21:34;1.07;;;1.07;;
4821;SDS011;2425;47.794;13.068;2023-09-19T14:24:03;1.03;;;1.03;;
4821;SDS011;2425;47.794;13.068;2023-09-19T14:26:34;1.10;;;1.10;;
4821;SDS011;2425;47.794;13.068;2023-09-19T14:29:01;1.37;;;1.30;;
4821;SDS011;2425;47.794;13.068;2023-09-19T14:31:27;1.30;;;1.20;;
4821;SDS011;2425;47.794;13.068;2023-09-19T14:33:54;2.20;;;1.10;;
4821;SDS011;2425;47.794;13.068;2023-09-19T14:36:22;1.10;;;1.10;;
4821;SDS011;2425;47.794;13.068;2023-09-19T14:38:52;1.83;;;1.10;;
4821;SDS011;2425;47.794;13.068;2023-09-19T14:41:21;1.90;;;1.10;;
4821;SDS011;2425;47.794;13.068;2023-09-19T14:43:50;4.00;;;0.70;;
4821;SDS011;2425;47.794;13.068;2023-09-19T14:46:18;0.93;;;0.93;;
4821;SDS011;2425;47.794;13.068;2023-09-19T14:48:45;1.37;;;1.23;;
4821;SDS011;2425;47.794;13.068;2023-09-19T14:51:13;1.00;;;1.00;;
4821;SDS011;2425;47.794;13.068;2023-09-19T14:53:40;1.00;;;0.90;;
4821;SDS011;2425;47.794;13.068;2023-09-19T14:56:07;1.03;;;0.90;;
4821;SDS011;2425;47.794;13.068;2023-09-19T14:58:37;0.97;;;0.97;;
4821;SDS011;2425;47.794;13.068;2023-09-19T15:01:07;1.00;;;1.00;;
4821;SDS011;2425;47.794;13.068;2023-09-19T15:03:35;0.97;;;0.97;;
4821;SDS011;2425;47.794;13.068;2023-09-19T15:06:02;1.10;;;1.03;;
4821;SDS011;2425;47.794;13.068;2023-09-19T15:08:30;1.30;;;1.30;;
4821;SDS011;2425;47.794;13.068;2023-09-19T15:10:59;1.03;;;1.03;;
4821;SDS011;2425;47.794;13.068;2023-09-19T15:13:29;2.20;;;1.10;;
4821;SDS011;2425;47.794;13.068;2023-09-19T15:15:59;0.90;;;0.90;;
4821;SDS011;2425;47.794;13.068;2023-09-19T15:18:27;1.10;;;1.10;;
4821;SDS011;2425;47.794;13.068;2023-09-19T15:20:55;0.60;;;0.60;;
4821;SDS011;2425;47.794;13.068;2023-09-19T15:23:21;2.97;;;0.93;;
4821;SDS011;2425;47.794;13.068;2023-09-19T15:25:48;0.90;;;0.90;;
4821;SDS011;2425;47.794;13.068;2023-09-19T15:28:15;1.20;;;1.10;;
4821;SDS011;2425;47.794;13.068;2023-09-19T15:30:42;0.83;;;0.73;;
4821;SDS011;2425;47.794;13.068;2023-09-19T15:33:10;0.80;;;0.80;;
4821;SDS011;2425;47.794;13.068;2023-09-19T15:35:36;1.23;;;1.10;;